sensor_id;sensor_type;location;lat;lon;timestamp;temperature;humidity
8269;DHT22;4174;48.304;16.364;2022-10-16T00:04:27;13.70;99.90
8269;DHT22;4174;48.304;16.364;2022-10-16T00:10:31;13.70;99.90
8269;DHT22;4174;48.304;16.364;2022-10-16T00:16:36;13.70;99.90
8269;DHT22;4174;48.304;16.364;2022-10-16T00:22:39;13.60;99.90
8269;DHT22;4174;48.304;16.364;2022-10-16T00:28:45;13.50;99.90
8269;DHT22;4174;48.304;16.364;2022-10-16T00:34:49;13.50;99.90
8269;DHT22;4174;48.304;16.364;2022-10-16T00:40:52;13.60;99.90
8269;DHT22;4174;48.304;16.364;2022-10-16T00:46:56;13.50;99.90
8269;DHT22;4174;48.304;16.364;2022-10-16T00:53:00;13.50;99.90
8269;DHT22;4174;48.304;16.364;2022-10-16T00:59:03;13.60;99.90
8269;DHT22;4174;48.304;16.364;2022-10-16T01:05:08;13.60;99.90
8269;DHT22;4174;48.304;16.364;2022-10-16T01:11:15;13.60;99.90
8269;DHT22;4174;48.304;16.364;2022-10-16T01:17:24;13.50;99.90
8269;DHT22;4174;48.304;16.364;2022-10-16T01:23:47;13.50;99.90
8269;DHT22;4174;48.304;16.364;2022-10-16T01:29:58;13.60;99.90
8269;DHT22;4174;48.304;16.364;2022-10-16T01:36:05;13.70;99.90
8269;DHT22;4174;48.304;16.364;2022-10-16T01:42:08;13.40;99.90
8269;DHT22;4174;48.304;16.364;2022-10-16T01:48:11;13.50;99.90
8269;DHT22;4174;48.304;16.364;2022-10-16T01:54:14;13.30;99.90
8269;DHT22;4174;48.304;16.364;2022-10-16T02:00:18;13.30;99.90
8269;DHT22;4174;48.304;16.364;2022-10-16T02:06:20;13.50;99.90
8269;DHT22;4174;48.304;16.364;2022-10-16T02:12:25;13.60;99.90
8269;DHT22;4174;48.304;16.364;2022-10-16T02:18:27;13.60;99.90
8269;DHT22;4174;48.304;16.364;2022-10-16T02:24:34;13.50;99.90
8269;DHT22;4174;48.304;16.364;2022-10-16T02:30:41;13.50;99.90
8269;DHT22;4174;48.304;16.364;2022-10-16T02:36:45;13.40;99.90
8269;DHT22;4174;48.304;16.364;2022-10-16T02:42:49;13.30;99.90
8269;DHT22;4174;48.304;16.364;2022-10-16T02:48:50;13.40;99.90
8269;DHT22;4174;48.304;16.364;2022-10-16T02:54:55;13.50;99.90
8269;DHT22;4174;48.304;16.364;2022-10-16T03:00:59;13.30;99.90
8269;DHT22;4174;48.304;16.364;2022-10-16T03:07:02;13.20;99.90
8269;DHT22;4174;48.304;16.364;2022-10-16T03:13:06;13.30;99.90
8269;DHT22;4174;48.304;16.364;2022-10-16T03:19:10;13.40;99.90
8269;DHT22;4174;48.304;16.364;2022-10-16T03:25:14;13.50;99.90
8269;DHT22;4174;48.304;16.364;2022-10-16T03:31:17;13.30;99.90
8269;DHT22;4174;48.304;16.364;2022-10-16T03:37:21;13.20;99.90
8269;DHT22;4174;48.304;16.364;2022-10-16T03:43:25;13.20;99.90
8269;DHT22;4174;48.304;16.364;2022-10-16T03:49:28;13.30;99.90
8269;DHT22;4174;48.304;16.364;2022-10-16T03:55:33;13.30;99.90
8269;DHT22;4174;48.304;16.364;2022-10-16T04:01:36;13.20;99.90
8269;DHT22;4174;48.304;16.364;2022-10-16T04:07:41;13.10;99.90
8269;DHT22;4174;48.304;16.364;2022-10-16T04:13:45;12.90;99.90
8269;DHT22;4174;48.304;16.364;2022-10-16T04:19:49;12.90;99.90
8269;DHT22;4174;48.304;16.364;2022-10-16T04:25:53;12.90;99.90
8269;DHT22;4174;48.304;16.364;2022-10-16T04:31:57;13.00;99.90
8269;DHT22;4174;48.304;16.364;2022-10-16T04:38:01;12.80;99.90
8269;DHT22;4174;48.304;16.364;2022-10-16T04:44:06;12.90;99.90
8269;DHT22;4174;48.304;16.364;2022-10-16T04:50:10;12.90;99.90
8269;DHT22;4174;48.304;16.364;2022-10-16T04:56:14;12.80;99.90
8269;DHT22;4174;48.304;16.364;2022-10-16T05:02:17;12.70;99.90
8269;DHT22;4174;48.304;16.364;2022-10-16T05:08:21;12.70;99.90
8269;DHT22;4174;48.304;16.364;2022-10-16T05:14:25;12.70;99.90
8269;DHT22;4174;48.304;16.364;2022-10-16T05:20:29;12.80;99.90
8269;DHT22;4174;48.304;16.364;2022-10-16T05:26:33;12.80;99.90
8269;DHT22;4174;48.304;16.364;2022-10-16T05:32:36;12.60;99.90
8269;DHT22;4174;48.304;16.364;2022-10-16T05:38:41;12.40;99.90
8269;DHT22;4174;48.304;16.364;2022-10-16T05:44:45;12.30;99.90
8269;DHT22;4174;48.304;16.364;2022-10-16T05:50:55;12.20;99.90
8269;DHT22;4174;48.304;16.364;2022-10-16T05:56:52;12.70;99.90
8269;DHT22;4174;48.304;16.364;2022-10-16T06:02:56;12.40;99.90
8269;DHT22;4174;48.304;16.364;2022-10-16T06:09:00;12.20;99.90
8269;DHT22;4174;48.304;16.364;2022-10-16T06:15:05;12.60;99.90
8269;DHT22;4174;48.304;16.364;2022-10-16T06:21:10;12.50;99.90
8269;DHT22;4174;48.304;16.364;2022-10-16T06:27:13;12.40;99.90
8269;DHT22;4174;48.304;16.364;2022-10-16T06:33:18;12.60;99.90
8269;DHT22;4174;48.304;16.364;2022-10-16T06:39:21;12.90;99.90
8269;DHT22;4174;48.304;16.364;2022-10-16T06:45:25;12.90;99.90
8269;DHT22;4174;48.304;16.364;2022-10-16T06:51:30;13.10;99.90
8269;DHT22;4174;48.304;16.364;2022-10-16T06:57:35;13.30;99.90
8269;DHT22;4174;48.304;16.364;2022-10-16T07:03:40;13.20;99.90
8269;DHT22;4174;48.304;16.364;2022-10-16T07:09:42;13.00;99.90
8269;DHT22;4174;48.304;16.364;2022-10-16T07:15:46;12.90;99.90
8269;DHT22;4174;48.304;16.364;2022-10-16T07:21:50;12.80;99.90
8269;DHT22;4174;48.304;16.364;2022-10-16T07:27:54;13.00;99.90
8269;DHT22;4174;48.304;16.364;2022-10-16T07:33:58;13.00;99.90
8269;DHT22;4174;48.304;16.364;2022-10-16T07:40:00;12.90;99.90
8269;DHT22;4174;48.304;16.364;2022-10-16T07:46:04;12.90;99.90
8269;DHT22;4174;48.304;16.364;2022-10-16T07:52:08;12.90;99.90
8269;DHT22;4174;48.304;16.364;2022-10-16T07:58:12;12.90;99.90
8269;DHT22;4174;48.304;16.364;2022-10-16T08:04:16;12.90;99.90
8269;DHT22;4174;48.304;16.364;2022-10-16T08:10:21;13.00;99.90
8269;DHT22;4174;48.304;16.364;2022-10-16T08:16:24;13.20;99.90
8269;DHT22;4174;48.304;16.364;2022-10-16T08:22:28;13.40;99.90
8269;DHT22;4174;48.304;16.364;2022-10-16T08:28:31;13.40;99.90
8269;DHT22;4174;48.304;16.364;2022-10-16T08:34:36;13.50;99.90
8269;DHT22;4174;48.304;16.364;2022-10-16T08:40:41;13.40;99.90
8269;DHT22;4174;48.304;16.364;2022-10-16T08:46:50;13.40;99.90
8269;DHT22;4174;48.304;16.364;2022-10-16T08:52:50;13.60;99.90
8269;DHT22;4174;48.304;16.364;2022-10-16T08:58:54;13.70;99.90
8269;DHT22;4174;48.304;16.364;2022-10-16T09:05:02;13.70;99.90
8269;DHT22;4174;48.304;16.364;2022-10-16T09:11:43;13.70;99.90
8269;DHT22;4174;48.304;16.364;2022-10-16T09:17:39;13.90;99.90
8269;DHT22;4174;48.304;16.364;2022-10-16T09:23:41;14.20;99.90
8269;DHT22;4174;48.304;16.364;2022-10-16T09:29:44;14.40;99.90
8269;DHT22;4174;48.304;16.364;2022-10-16T09:35:50;14.40;99.90
8269;DHT22;4174;48.304;16.364;2022-10-16T09:41:53;14.50;99.90
8269;DHT22;4174;48.304;16.364;2022-10-16T09:47:56;14.60;99.90
8269;DHT22;4174;48.304;16.364;2022-10-16T09:54:01;14.60;99.90
8269;DHT22;4174;48.304;16.364;2022-10-16T10:00:04;14.50;99.90
8269;DHT22;4174;48.304;16.364;2022-10-16T10:06:17;15.00;99.90
8269;DHT22;4174;48.304;16.364;2022-10-16T10:12:21;15.80;99.90
8269;DHT22;4174;48.304;16.364;2022-10-16T10:18:23;15.80;99.90
8269;DHT22;4174;48.304;16.364;2022-10-16T10:24:27;16.10;99.90
8269;DHT22;4174;48.304;16.364;2022-10-16T10:30:41;16.20;99.90
8269;DHT22;4174;48.304;16.364;2022-10-16T10:36:58;16.40;99.90
8269;DHT22;4174;48.304;16.364;2022-10-16T10:43:24;16.50;99.90
8269;DHT22;4174;48.304;16.364;2022-10-16T10:49:55;17.10;99.90
8269;DHT22;4174;48.304;16.364;2022-10-16T11:02:18;17.70;99.90
8269;DHT22;4174;48.304;16.364;2022-10-16T11:08:22;17.50;99.90
8269;DHT22;4174;48.304;16.364;2022-10-16T11:14:26;20.50;99.90
8269;DHT22;4174;48.304;16.364;2022-10-16T11:20:30;20.50;99.90
8269;DHT22;4174;48.304;16.364;2022-10-16T11:26:34;20.40;99.90
8269;DHT22;4174;48.304;16.364;2022-10-16T11:33:01;20.40;99.90
8269;DHT22;4174;48.304;16.364;2022-10-16T11:39:21;20.60;99.90
8269;DHT22;4174;48.304;16.364;2022-10-16T11:45:33;20.60;99.90
8269;DHT22;4174;48.304;16.364;2022-10-16T11:51:40;20.60;99.90
8269;DHT22;4174;48.304;16.364;2022-10-16T11:57:46;21.10;99.90
8269;DHT22;4174;48.304;16.364;2022-10-16T12:03:55;19.60;99.90
8269;DHT22;4174;48.304;16.364;2022-10-16T12:09:52;19.30;99.90
8269;DHT22;4174;48.304;16.364;2022-10-16T12:16:06;19.40;99.90
8269;DHT22;4174;48.304;16.364;2022-10-16T12:22:15;20.20;99.90
8269;DHT22;4174;48.304;16.364;2022-10-16T12:28:29;19.90;99.90
8269;DHT22;4174;48.304;16.364;2022-10-16T12:34:42;20.00;99.90
8269;DHT22;4174;48.304;16.364;2022-10-16T12:40:46;20.50;99.90
8269;DHT22;4174;48.304;16.364;2022-10-16T12:46:49;21.00;99.90
8269;DHT22;4174;48.304;16.364;2022-10-16T12:52:52;21.40;99.90
8269;DHT22;4174;48.304;16.364;2022-10-16T13:05:56;21.30;99.90
8269;DHT22;4174;48.304;16.364;2022-10-16T13:12:18;21.00;99.90
8269;DHT22;4174;48.304;16.364;2022-10-16T13:18:41;20.50;99.90
8269;DHT22;4174;48.304;16.364;2022-10-16T13:31:17;22.00;99.90
8269;DHT22;4174;48.304;16.364;2022-10-16T13:37:19;21.20;99.90
8269;DHT22;4174;48.304;16.364;2022-10-16T13:43:38;21.60;99.90
8269;DHT22;4174;48.304;16.364;2022-10-16T13:49:42;21.50;99.90
8269;DHT22;4174;48.304;16.364;2022-10-16T13:55:46;21.90;99.90
8269;DHT22;4174;48.304;16.364;2022-10-16T14:01:50;21.90;99.90
8269;DHT22;4174;48.304;16.364;2022-10-16T14:07:53;22.00;99.90
8269;DHT22;4174;48.304;16.364;2022-10-16T14:13:56;22.00;99.90
8269;DHT22;4174;48.304;16.364;2022-10-16T14:20:00;22.10;99.90
8269;DHT22;4174;48.304;16.364;2022-10-16T14:26:14;22.20;99.90
8269;DHT22;4174;48.304;16.364;2022-10-16T14:32:22;21.80;99.90
8269;DHT22;4174;48.304;16.364;2022-10-16T14:38:24;22.00;99.90
8269;DHT22;4174;48.304;16.364;2022-10-16T14:44:29;21.80;99.90
8269;DHT22;4174;48.304;16.364;2022-10-16T14:50:32;21.60;99.90
8269;DHT22;4174;48.304;16.364;2022-10-16T14:56:50;21.90;99.90
8269;DHT22;4174;48.304;16.364;2022-10-16T15:02:52;21.80;99.90
8269;DHT22;4174;48.304;16.364;2022-10-16T15:08:56;21.70;99.90
8269;DHT22;4174;48.304;16.364;2022-10-16T15:15:00;21.50;99.90
8269;DHT22;4174;48.304;16.364;2022-10-16T15:21:05;21.30;99.90
8269;DHT22;4174;48.304;16.364;2022-10-16T15:27:08;21.30;99.90
8269;DHT22;4174;48.304;16.364;2022-10-16T15:33:16;21.10;99.90
8269;DHT22;4174;48.304;16.364;2022-10-16T15:39:18;21.00;99.90
8269;DHT22;4174;48.304;16.364;2022-10-16T15:45:21;20.90;99.90
8269;DHT22;4174;48.304;16.364;2022-10-16T15:51:25;20.60;99.90
8269;DHT22;4174;48.304;16.364;2022-10-16T15:57:29;20.50;99.90
8269;DHT22;4174;48.304;16.364;2022-10-16T16:03:33;20.40;99.90
8269;DHT22;4174;48.304;16.364;2022-10-16T16:09:37;20.10;99.90
8269;DHT22;4174;48.304;16.364;2022-10-16T16:15:42;19.80;99.90
8269;DHT22;4174;48.304;16.364;2022-10-16T16:21:46;19.60;99.90
8269;DHT22;4174;48.304;16.364;2022-10-16T16:27:49;19.30;99.90
8269;DHT22;4174;48.304;16.364;2022-10-16T16:33:52;19.10;99.90
8269;DHT22;4174;48.304;16.364;2022-10-16T16:39:54;19.10;99.90
8269;DHT22;4174;48.304;16.364;2022-10-16T16:45:59;19.10;99.90
8269;DHT22;4174;48.304;16.364;2022-10-16T16:52:01;18.90;99.90
8269;DHT22;4174;48.304;16.364;2022-10-16T16:58:05;18.70;99.90
8269;DHT22;4174;48.304;16.364;2022-10-16T17:04:09;18.60;99.90
8269;DHT22;4174;48.304;16.364;2022-10-16T17:10:13;18.80;99.90
8269;DHT22;4174;48.304;16.364;2022-10-16T17:16:17;18.70;99.90
8269;DHT22;4174;48.304;16.364;2022-10-16T17:22:20;18.80;99.90
8269;DHT22;4174;48.304;16.364;2022-10-16T17:28:24;18.70;99.90
8269;DHT22;4174;48.304;16.364;2022-10-16T17:34:29;18.60;99.90
8269;DHT22;4174;48.304;16.364;2022-10-16T17:40:33;18.60;99.90
8269;DHT22;4174;48.304;16.364;2022-10-16T17:46:36;18.20;99.90
8269;DHT22;4174;48.304;16.364;2022-10-16T17:52:39;18.20;99.90
8269;DHT22;4174;48.304;16.364;2022-10-16T17:58:47;18.00;99.90
8269;DHT22;4174;48.304;16.364;2022-10-16T18:04:49;18.00;99.90
8269;DHT22;4174;48.304;16.364;2022-10-16T18:10:53;18.00;99.90
8269;DHT22;4174;48.304;16.364;2022-10-16T18:16:56;17.80;99.90
8269;DHT22;4174;48.304;16.364;2022-10-16T18:23:00;17.80;99.90
8269;DHT22;4174;48.304;16.364;2022-10-16T18:29:03;17.60;99.90
8269;DHT22;4174;48.304;16.364;2022-10-16T18:35:08;17.30;99.90
8269;DHT22;4174;48.304;16.364;2022-10-16T18:41:12;17.20;99.90
8269;DHT22;4174;48.304;16.364;2022-10-16T18:47:15;17.20;99.90
8269;DHT22;4174;48.304;16.364;2022-10-16T18:53:19;17.10;99.90
8269;DHT22;4174;48.304;16.364;2022-10-16T18:59:21;17.20;99.90
8269;DHT22;4174;48.304;16.364;2022-10-16T19:05:26;17.00;99.90
8269;DHT22;4174;48.304;16.364;2022-10-16T19:11:29;17.00;99.90
8269;DHT22;4174;48.304;16.364;2022-10-16T19:17:32;16.90;99.90
8269;DHT22;4174;48.304;16.364;2022-10-16T19:23:37;16.80;99.90
8269;DHT22;4174;48.304;16.364;2022-10-16T19:29:40;16.80;99.90
8269;DHT22;4174;48.304;16.364;2022-10-16T19:35:44;16.80;99.90
8269;DHT22;4174;48.304;16.364;2022-10-16T19:41:48;16.80;99.90
8269;DHT22;4174;48.304;16.364;2022-10-16T19:47:52;16.90;99.90
8269;DHT22;4174;48.304;16.364;2022-10-16T19:53:56;16.90;99.90
8269;DHT22;4174;48.304;16.364;2022-10-16T19:59:59;16.80;99.90
8269;DHT22;4174;48.304;16.364;2022-10-16T20:06:02;16.80;99.90
8269;DHT22;4174;48.304;16.364;2022-10-16T20:12:07;16.60;99.90
8269;DHT22;4174;48.304;16.364;2022-10-16T20:18:10;16.50;99.90
8269;DHT22;4174;48.304;16.364;2022-10-16T20:24:14;16.50;99.90
8269;DHT22;4174;48.304;16.364;2022-10-16T20:30:18;16.50;99.90
8269;DHT22;4174;48.304;16.364;2022-10-16T20:36:22;16.60;99.90
8269;DHT22;4174;48.304;16.364;2022-10-16T20:42:24;16.60;99.90
8269;DHT22;4174;48.304;16.364;2022-10-16T20:48:29;16.70;99.90
8269;DHT22;4174;48.304;16.364;2022-10-16T20:54:33;16.50;99.90
8269;DHT22;4174;48.304;16.364;2022-10-16T21:00:37;16.30;99.90
8269;DHT22;4174;48.304;16.364;2022-10-16T21:06:41;16.30;99.90
8269;DHT22;4174;48.304;16.364;2022-10-16T21:12:44;16.20;99.90
8269;DHT22;4174;48.304;16.364;2022-10-16T21:18:48;16.20;99.90
8269;DHT22;4174;48.304;16.364;2022-10-16T21:24:51;16.30;99.90
8269;DHT22;4174;48.304;16.364;2022-10-16T21:30:56;16.00;99.90
8269;DHT22;4174;48.304;16.364;2022-10-16T21:37:00;15.90;99.90
8269;DHT22;4174;48.304;16.364;2022-10-16T21:43:04;15.80;99.90
8269;DHT22;4174;48.304;16.364;2022-10-16T21:49:10;15.80;99.90
8269;DHT22;4174;48.304;16.364;2022-10-16T21:55:13;15.70;99.90
8269;DHT22;4174;48.304;16.364;2022-10-16T22:01:17;15.80;99.90
8269;DHT22;4174;48.304;16.364;2022-10-16T22:07:19;15.80;99.90
8269;DHT22;4174;48.304;16.364;2022-10-16T22:13:23;15.80;99.90
8269;DHT22;4174;48.304;16.364;2022-10-16T22:19:27;15.70;99.90
8269;DHT22;4174;48.304;16.364;2022-10-16T22:25:32;15.70;99.90
8269;DHT22;4174;48.304;16.364;2022-10-16T22:31:34;15.50;99.90
8269;DHT22;4174;48.304;16.364;2022-10-16T22:37:37;15.40;99.90
8269;DHT22;4174;48.304;16.364;2022-10-16T22:43:42;15.30;99.90
8269;DHT22;4174;48.304;16.364;2022-10-16T22:49:44;15.30;99.90
8269;DHT22;4174;48.304;16.364;2022-10-16T22:55:49;15.20;99.90
8269;DHT22;4174;48.304;16.364;2022-10-16T23:01:53;15.20;99.90
8269;DHT22;4174;48.304;16.364;2022-10-16T23:07:56;14.80;99.90
8269;DHT22;4174;48.304;16.364;2022-10-16T23:14:00;14.60;99.90
8269;DHT22;4174;48.304;16.364;2022-10-16T23:20:05;14.40;99.90
8269;DHT22;4174;48.304;16.364;2022-10-16T23:26:11;14.40;99.90
8269;DHT22;4174;48.304;16.364;2022-10-16T23:32:15;14.40;99.90
8269;DHT22;4174;48.304;16.364;2022-10-16T23:38:18;14.30;99.90
8269;DHT22;4174;48.304;16.364;2022-10-16T23:44:22;14.40;99.90
8269;DHT22;4174;48.304;16.364;2022-10-16T23:50:26;14.40;99.90
8269;DHT22;4174;48.304;16.364;2022-10-16T23:56:29;14.30;99.90
